createdAt,value
2023-02-12T00:02:02.238Z,6.70
2023-02-12T00:04:16.473Z,6.69
2023-02-12T00:06:29.136Z,6.68
2023-02-12T00:08:41.814Z,6.66
2023-02-12T00:10:54.359Z,6.68
2023-02-12T00:13:06.879Z,6.69
2023-02-12T00:15:19.502Z,6.70
2023-02-12T00:17:32.053Z,6.69
2023-02-12T00:19:44.701Z,6.68
2023-02-12T00:21:57.318Z,6.67
2023-02-12T00:24:09.887Z,6.66
2023-02-12T00:26:23.394Z,6.65
2023-02-12T00:28:36.307Z,6.64
2023-02-12T00:30:49.009Z,6.65
2023-02-12T00:33:01.657Z,6.64
2023-02-12T00:35:14.171Z,6.63
2023-02-12T00:37:26.742Z,6.62
2023-02-12T00:39:39.787Z,6.62
2023-02-12T00:41:52.328Z,6.61
2023-02-12T00:44:04.991Z,6.59
2023-02-12T00:46:17.827Z,6.58
2023-02-12T00:48:30.925Z,6.59
2023-02-12T00:50:47.474Z,6.61
2023-02-12T00:53:00.058Z,6.60
2023-02-12T00:55:12.622Z,6.60
2023-02-12T00:57:25.190Z,6.61
2023-02-12T00:59:40.042Z,6.59
2023-02-12T01:01:54.873Z,6.59
2023-02-12T01:04:07.675Z,6.58
2023-02-12T01:06:20.222Z,6.56
2023-02-12T01:08:32.885Z,6.56
2023-02-12T01:10:45.563Z,6.55
2023-02-12T01:12:58.185Z,6.55
2023-02-12T01:15:10.895Z,6.56
2023-02-12T01:17:23.408Z,6.53
2023-02-12T01:19:35.941Z,6.52
2023-02-12T01:21:48.487Z,6.50
2023-02-12T01:24:01.968Z,6.49
2023-02-12T01:26:16.388Z,6.50
2023-02-12T01:28:28.966Z,6.52
2023-02-12T01:30:41.562Z,6.52
2023-02-12T01:32:55.545Z,6.53
2023-02-12T01:35:10.122Z,6.54
2023-02-12T01:37:22.645Z,6.55
2023-02-12T01:39:35.853Z,6.56
2023-02-12T01:41:48.492Z,6.54
2023-02-12T01:44:20.938Z,6.54
2023-02-12T01:46:33.601Z,6.50
2023-02-12T01:48:48.084Z,6.51
2023-02-12T01:51:02.678Z,6.52
2023-02-12T01:53:20.261Z,6.54
2023-02-12T01:55:32.885Z,6.52
2023-02-12T01:57:47.189Z,6.52
2023-02-12T02:00:02.685Z,6.53
2023-02-12T02:02:15.325Z,6.51
2023-02-12T02:04:31.854Z,6.51
2023-02-12T02:06:50.577Z,6.49
2023-02-12T02:09:04.316Z,6.49
2023-02-12T02:11:52.123Z,6.47
2023-02-12T02:14:23.315Z,6.42
2023-02-12T02:16:37.277Z,6.38
2023-02-12T02:19:06.885Z,6.38
2023-02-12T02:21:38.233Z,6.36
2023-02-12T02:24:09.547Z,6.33
2023-02-12T02:26:45.065Z,6.34
2023-02-12T02:29:09.520Z,6.35
2023-02-12T02:31:46.998Z,6.37
2023-02-12T02:34:16.003Z,6.34
2023-02-12T02:37:00.834Z,6.34
2023-02-12T02:39:23.577Z,6.29
2023-02-12T02:42:00.048Z,6.28
2023-02-12T02:44:21.125Z,6.27
2023-02-12T02:46:41.987Z,6.29
2023-02-12T02:49:01.925Z,6.31
2023-02-12T02:51:20.233Z,6.34
2023-02-12T02:53:38.628Z,6.35
2023-02-12T02:55:54.562Z,6.36
2023-02-12T02:58:17.370Z,6.37
2023-02-12T03:00:48.762Z,6.38
2023-02-12T03:03:12.145Z,6.37
2023-02-12T03:05:40.356Z,6.38
2023-02-12T03:07:59.036Z,6.38
2023-02-12T03:10:18.927Z,6.39
2023-02-12T03:12:43.293Z,6.37
2023-02-12T03:15:24.525Z,6.36
2023-02-12T03:17:44.430Z,6.37
2023-02-12T03:20:06.000Z,6.37
2023-02-12T03:22:28.071Z,6.39
2023-02-12T03:24:48.928Z,6.41
2023-02-12T03:27:07.398Z,6.44
2023-02-12T03:29:20.218Z,6.44
2023-02-12T03:31:54.012Z,6.46
2023-02-12T03:34:44.774Z,6.47
2023-02-12T03:37:04.815Z,6.44
2023-02-12T03:39:28.850Z,6.44
2023-02-12T03:41:50.077Z,6.43
2023-02-12T03:44:15.210Z,6.42
2023-02-12T03:46:57.844Z,6.43
2023-02-12T03:49:27.554Z,6.39
2023-02-12T03:51:44.657Z,6.39
2023-02-12T03:53:57.925Z,6.40
2023-02-12T03:56:15.946Z,6.43
2023-02-12T03:58:30.496Z,6.45
2023-02-12T04:00:43.356Z,6.49
2023-02-12T04:02:57.090Z,6.52
2023-02-12T04:05:17.852Z,6.52
2023-02-12T04:07:30.540Z,6.48
2023-02-12T04:09:43.621Z,6.47
2023-02-12T04:12:03.897Z,6.46
2023-02-12T04:14:16.386Z,6.44
2023-02-12T04:16:37.959Z,6.45
2023-02-12T04:18:52.275Z,6.44
2023-02-12T04:21:29.095Z,6.45
2023-02-12T04:23:53.087Z,6.42
2023-02-12T04:26:23.808Z,6.39
2023-02-12T04:29:05.421Z,6.37
2023-02-12T04:31:29.608Z,6.33
2023-02-12T04:33:53.196Z,6.32
2023-02-12T04:36:15.444Z,6.31
2023-02-12T04:38:34.792Z,6.31
2023-02-12T04:40:48.019Z,6.32
2023-02-12T04:43:01.183Z,6.31
2023-02-12T04:45:22.864Z,6.32
2023-02-12T04:47:35.405Z,6.36
2023-02-12T04:49:47.958Z,6.41
2023-02-12T04:52:00.594Z,6.42
2023-02-12T04:54:14.652Z,6.42
2023-02-12T04:56:27.212Z,6.45
2023-02-12T04:58:40.879Z,6.46
2023-02-12T05:00:53.448Z,6.45
2023-02-12T05:03:06.032Z,6.47
2023-02-12T05:05:18.706Z,6.47
2023-02-12T05:07:31.224Z,6.45
2023-02-12T05:09:43.768Z,6.46
2023-02-12T05:11:56.263Z,6.48
2023-02-12T05:14:08.769Z,6.52
2023-02-12T05:16:22.599Z,6.53
2023-02-12T05:18:35.755Z,6.52
2023-02-12T05:20:56.967Z,6.51
2023-02-12T05:23:09.477Z,6.51
2023-02-12T05:25:22.118Z,6.49
2023-02-12T05:27:34.665Z,6.45
2023-02-12T05:29:47.258Z,6.44
2023-02-12T05:31:59.996Z,6.45
2023-02-12T05:34:12.949Z,6.44
2023-02-12T05:36:25.822Z,6.44
2023-02-12T05:38:38.324Z,6.47
2023-02-12T05:40:50.815Z,6.51
2023-02-12T05:43:03.396Z,6.51
2023-02-12T05:45:16.042Z,6.47
2023-02-12T05:47:28.561Z,6.45
2023-02-12T05:49:41.182Z,6.47
2023-02-12T05:51:53.695Z,6.50
2023-02-12T05:54:07.290Z,6.54
2023-02-12T05:56:23.040Z,6.55
2023-02-12T05:58:35.750Z,6.54
2023-02-12T06:00:48.376Z,6.53
2023-02-12T06:03:01.005Z,6.52
2023-02-12T06:05:13.689Z,6.55
2023-02-12T06:07:27.857Z,6.56
2023-02-12T06:09:40.459Z,6.58
2023-02-12T06:11:52.977Z,6.56
2023-02-12T06:14:07.114Z,6.54
2023-02-12T06:16:22.689Z,6.55
2023-02-12T06:18:36.389Z,6.57
2023-02-12T06:20:48.932Z,6.60
2023-02-12T06:23:01.443Z,6.64
2023-02-12T06:25:14.360Z,6.64
2023-02-12T06:27:26.913Z,6.62
2023-02-12T06:29:39.457Z,6.60
2023-02-12T06:31:52.193Z,6.61
2023-02-12T06:34:07.841Z,6.61
2023-02-12T06:36:21.556Z,6.60
2023-02-12T06:38:35.121Z,6.61
2023-02-12T06:40:48.089Z,6.62
2023-02-12T06:43:00.782Z,6.61
2023-02-12T06:45:13.398Z,6.62
2023-02-12T06:47:27.101Z,6.68
2023-02-12T06:49:42.464Z,6.65
2023-02-12T06:51:55.044Z,6.63
2023-02-12T06:54:13.768Z,6.65
2023-02-12T06:56:27.431Z,6.66
2023-02-12T06:58:49.259Z,6.67
2023-02-12T07:01:17.796Z,6.69
2023-02-12T07:03:30.350Z,6.76
2023-02-12T07:05:42.958Z,6.80
2023-02-12T07:07:55.587Z,6.83
2023-02-12T07:10:08.872Z,6.85
2023-02-12T07:12:21.416Z,6.87
2023-02-12T07:14:34.176Z,6.88
2023-02-12T07:16:46.739Z,6.92
2023-02-12T07:18:59.374Z,6.95
2023-02-12T07:21:13.379Z,6.95
2023-02-12T07:23:25.997Z,6.98
2023-02-12T07:25:38.703Z,7.02
2023-02-12T07:27:51.233Z,7.06
2023-02-12T07:30:05.506Z,7.13
2023-02-12T07:32:18.070Z,7.17
2023-02-12T07:34:30.666Z,7.21
2023-02-12T07:36:43.345Z,7.28
2023-02-12T07:38:57.278Z,7.40
2023-02-12T07:41:16.474Z,7.52
2023-02-12T07:43:29.150Z,7.59
2023-02-12T07:45:41.700Z,7.60
2023-02-12T07:47:54.265Z,7.66
2023-02-12T07:50:07.242Z,7.72
2023-02-12T07:52:19.768Z,7.74
2023-02-12T07:54:32.344Z,7.75
2023-02-12T07:56:46.927Z,7.78
2023-02-12T07:59:05.204Z,7.76
2023-02-12T08:01:21.555Z,7.73
2023-02-12T08:03:34.112Z,7.75
2023-02-12T08:05:46.612Z,7.75
2023-02-12T08:07:59.133Z,7.77
2023-02-12T08:10:11.742Z,7.77
2023-02-12T08:12:24.302Z,7.74
2023-02-12T08:14:36.844Z,7.75
2023-02-12T08:16:50.809Z,7.83
2023-02-12T08:19:16.563Z,7.90
2023-02-12T08:21:30.465Z,7.94
2023-02-12T08:23:43.095Z,7.98
2023-02-12T08:25:55.918Z,8.04
2023-02-12T08:28:08.628Z,8.10
2023-02-12T08:30:21.177Z,8.12
2023-02-12T08:32:33.824Z,8.12
2023-02-12T08:34:46.405Z,8.11
2023-02-12T08:36:59.604Z,8.13
2023-02-12T08:39:12.700Z,8.16
2023-02-12T08:41:28.289Z,8.19
2023-02-12T08:43:42.736Z,8.16
2023-02-12T08:45:58.018Z,8.10
2023-02-12T08:48:10.858Z,8.16
2023-02-12T08:50:23.360Z,8.28
2023-02-12T08:52:35.893Z,8.36
2023-02-12T08:54:48.430Z,8.41
2023-02-12T08:57:03.607Z,8.41
2023-02-12T08:59:17.077Z,8.42
2023-02-12T09:01:31.632Z,8.44
2023-02-12T09:03:44.965Z,8.47
2023-02-12T09:05:57.809Z,8.46
2023-02-12T09:08:10.439Z,8.46
2023-02-12T09:10:23.011Z,8.49
2023-02-12T09:12:35.506Z,8.50
2023-02-12T09:14:48.097Z,8.47
2023-02-12T09:17:00.704Z,8.44
2023-02-12T09:19:14.595Z,8.45
2023-02-12T09:21:27.337Z,8.43
2023-02-12T09:23:40.699Z,8.40
2023-02-12T09:25:53.207Z,8.40
2023-02-12T09:28:05.864Z,8.39
2023-02-12T09:30:18.783Z,8.37
2023-02-12T09:32:31.390Z,8.36
2023-02-12T09:34:43.908Z,8.39
2023-02-12T09:36:56.447Z,8.45
2023-02-12T09:39:09.023Z,8.60
2023-02-12T09:41:46.679Z,8.75
2023-02-12T09:44:11.415Z,8.85
2023-02-12T09:46:31.300Z,9.05
2023-02-12T09:48:59.362Z,9.24
2023-02-12T09:51:12.645Z,9.38
2023-02-12T09:53:29.227Z,9.46
2023-02-12T09:55:41.840Z,9.52
2023-02-12T09:57:55.076Z,9.55
2023-02-12T10:00:31.079Z,9.69
2023-02-12T10:02:43.843Z,9.79
2023-02-12T10:05:01.580Z,9.80
2023-02-12T10:07:48.064Z,9.79
2023-02-12T10:10:15.931Z,9.73
2023-02-12T10:12:50.452Z,9.64
2023-02-12T10:15:15.019Z,9.61
2023-02-12T10:17:37.719Z,9.67
2023-02-12T10:20:04.293Z,9.79
2023-02-12T10:22:56.518Z,10.05
2023-02-12T10:25:24.562Z,10.41
2023-02-12T10:27:46.687Z,10.63
2023-02-12T10:30:00.833Z,10.70
2023-02-12T10:32:25.685Z,10.68
2023-02-12T10:34:41.385Z,10.66
2023-02-12T10:36:59.426Z,10.59
2023-02-12T10:39:14.722Z,10.62
2023-02-12T10:41:30.114Z,10.82
2023-02-12T10:43:42.772Z,10.96
2023-02-12T10:45:55.845Z,11.00
2023-02-12T10:48:24.256Z,10.86
2023-02-12T10:50:51.966Z,10.70
2023-02-12T10:53:04.537Z,10.69
2023-02-12T10:55:34.959Z,10.67
2023-02-12T10:57:47.554Z,10.48
2023-02-12T11:00:29.733Z,10.35
2023-02-12T11:03:00.418Z,10.12
2023-02-12T11:05:24.387Z,9.96
2023-02-12T11:07:48.565Z,9.89
2023-02-12T11:10:01.154Z,9.88
2023-02-12T11:12:31.711Z,9.90
2023-02-12T11:14:52.845Z,9.84
2023-02-12T11:17:05.683Z,9.83
2023-02-12T11:19:28.220Z,9.80
2023-02-12T11:21:40.809Z,9.77
2023-02-12T11:23:53.417Z,9.71
2023-02-12T11:26:22.388Z,9.69
2023-02-12T11:28:36.843Z,9.71
2023-02-12T11:30:58.823Z,9.78
2023-02-12T11:33:25.962Z,9.83
2023-02-12T11:35:49.408Z,9.88
2023-02-12T11:38:03.436Z,9.91
2023-02-12T11:40:23.862Z,9.97
2023-02-12T11:42:38.449Z,9.97
2023-02-12T11:44:55.022Z,9.98
2023-02-12T11:47:18.780Z,9.98
2023-02-12T11:49:34.278Z,9.99
2023-02-12T11:51:47.915Z,10.14
2023-02-12T11:54:03.548Z,10.41
2023-02-12T11:56:16.684Z,10.50
2023-02-12T11:58:30.729Z,10.40
2023-02-12T12:00:52.333Z,10.25
2023-02-12T12:03:15.227Z,10.10
2023-02-12T12:05:36.914Z,10.01
2023-02-12T12:07:58.621Z,9.96
2023-02-12T12:10:25.720Z,9.89
2023-02-12T12:12:50.864Z,9.93
2023-02-12T12:15:26.255Z,10.13
2023-02-12T12:18:13.931Z,10.59
2023-02-12T12:20:32.035Z,11.14
2023-02-12T12:23:00.808Z,11.32
2023-02-12T12:25:41.463Z,11.03
2023-02-12T12:28:06.555Z,10.66
2023-02-12T12:30:37.677Z,10.50
2023-02-12T12:32:52.792Z,10.36
2023-02-12T12:35:11.193Z,10.29
2023-02-12T12:37:37.032Z,10.22
2023-02-12T12:40:26.806Z,10.15
2023-02-12T12:43:02.464Z,10.08
2023-02-12T12:45:50.328Z,10.08
2023-02-12T12:48:09.629Z,10.06
2023-02-12T12:50:29.681Z,10.14
2023-02-12T12:53:27.887Z,10.21
2023-02-12T12:55:59.040Z,10.21
2023-02-12T12:58:29.641Z,10.21
2023-02-12T13:01:14.687Z,10.25
2023-02-12T13:04:09.162Z,10.27
2023-02-12T13:06:29.242Z,10.27
2023-02-12T13:09:08.017Z,10.29
2023-02-12T13:11:38.943Z,10.25
2023-02-12T13:14:03.302Z,10.17
2023-02-12T13:16:34.715Z,10.15
2023-02-12T13:19:09.164Z,10.13
2023-02-12T13:21:44.175Z,10.11
2023-02-12T13:24:08.175Z,10.14
2023-02-12T13:26:30.984Z,10.11
2023-02-12T13:28:56.857Z,10.03
2023-02-12T13:31:34.374Z,9.99
2023-02-12T13:33:53.076Z,9.91
2023-02-12T13:36:07.372Z,9.88
2023-02-12T13:38:31.260Z,9.83
2023-02-12T13:40:43.965Z,9.81
2023-02-12T13:43:22.189Z,9.76
2023-02-12T13:45:54.824Z,9.68
2023-02-12T13:48:29.261Z,9.62
2023-02-12T13:51:01.071Z,9.51
2023-02-12T13:53:32.282Z,9.48
2023-02-12T13:56:01.776Z,9.44
2023-02-12T13:58:32.910Z,9.42
2023-02-12T14:00:51.490Z,9.39
2023-02-12T14:03:09.331Z,9.38
2023-02-12T14:05:26.565Z,9.40
2023-02-12T14:07:45.777Z,9.42
2023-02-12T14:09:58.420Z,9.45
2023-02-12T14:12:27.272Z,9.54
2023-02-12T14:14:49.996Z,9.53
2023-02-12T14:17:33.524Z,9.51
2023-02-12T14:19:54.766Z,9.45
2023-02-12T14:22:13.266Z,9.40
2023-02-12T14:24:37.876Z,9.37
2023-02-12T14:26:50.661Z,9.35
2023-02-12T14:29:06.637Z,9.31
2023-02-12T14:31:19.584Z,9.33
2023-02-12T14:33:32.296Z,9.32
2023-02-12T14:35:47.052Z,9.33
2023-02-12T14:38:02.303Z,9.32
2023-02-12T14:40:31.880Z,9.29
2023-02-12T14:42:55.844Z,9.25
2023-02-12T14:45:28.358Z,9.27
2023-02-12T14:47:43.422Z,9.27
2023-02-12T14:50:01.489Z,9.27
2023-02-12T14:52:14.494Z,9.26
2023-02-12T14:54:32.818Z,9.28
2023-02-12T14:56:49.311Z,9.28
2023-02-12T14:59:03.742Z,9.26
2023-02-12T15:01:16.998Z,9.25
2023-02-12T15:03:42.951Z,9.20
2023-02-12T15:06:01.942Z,9.16
2023-02-12T15:08:53.156Z,9.12
2023-02-12T15:11:26.434Z,9.04
2023-02-12T15:13:57.143Z,9.00
2023-02-12T15:16:22.242Z,8.96
2023-02-12T15:18:40.997Z,8.97
2023-02-12T15:21:27.740Z,9.00
2023-02-12T15:23:43.034Z,8.96
2023-02-12T15:25:57.108Z,9.00
2023-02-12T15:28:29.689Z,9.05
2023-02-12T15:30:42.851Z,9.03
2023-02-12T15:33:02.407Z,9.03
2023-02-12T15:35:28.450Z,9.01
2023-02-12T15:37:41.083Z,8.99
2023-02-12T15:39:57.113Z,8.97
2023-02-12T15:42:35.532Z,8.98
2023-02-12T15:45:16.204Z,8.92
2023-02-12T15:47:34.778Z,8.88
2023-02-12T15:49:47.569Z,8.89
2023-02-12T15:54:56.797Z,8.78
2023-02-12T15:57:11.429Z,8.76
2023-02-12T15:59:29.046Z,8.75
2023-02-12T16:01:54.289Z,8.72
2023-02-12T16:04:08.285Z,8.67
2023-02-12T16:06:23.152Z,8.66
2023-02-12T16:08:36.050Z,8.65
2023-02-12T16:10:51.877Z,8.61
2023-02-12T16:13:05.017Z,8.59
2023-02-12T16:15:30.829Z,8.58
2023-02-12T16:17:47.749Z,8.53
2023-02-12T16:20:08.845Z,8.51
2023-02-12T16:22:26.226Z,8.45
2023-02-12T16:24:45.654Z,8.39
2023-02-12T16:27:04.401Z,8.36
2023-02-12T16:29:18.267Z,8.34
2023-02-12T16:31:31.058Z,8.30
2023-02-12T16:33:52.563Z,8.27
2023-02-12T16:36:24.268Z,8.23
2023-02-12T16:38:46.058Z,8.19
2023-02-12T16:41:23.516Z,8.12
2023-02-12T16:43:36.135Z,8.05
2023-02-12T16:45:49.442Z,8.06
2023-02-12T16:48:23.295Z,8.05
2023-02-12T16:50:43.336Z,8.01
2023-02-12T16:53:05.421Z,7.99
2023-02-12T16:55:18.071Z,7.98
2023-02-12T16:57:30.729Z,7.98
2023-02-12T16:59:45.229Z,7.97
2023-02-12T17:02:05.120Z,7.93
2023-02-12T17:04:17.827Z,7.90
2023-02-12T17:06:31.703Z,7.89
2023-02-12T17:08:44.474Z,7.88
2023-02-12T17:10:57.004Z,7.87
2023-02-12T17:13:09.673Z,7.86
2023-02-12T17:15:28.441Z,7.86
2023-02-12T17:17:41.010Z,7.85
2023-02-12T17:19:53.606Z,7.85
2023-02-12T17:22:15.872Z,7.86
2023-02-12T17:24:31.374Z,7.84
2023-02-12T17:26:43.984Z,7.82
2023-02-12T17:29:05.099Z,7.84
2023-02-12T17:31:19.538Z,7.85
2023-02-12T17:33:32.876Z,7.86
2023-02-12T17:35:45.676Z,7.85
2023-02-12T17:37:58.307Z,7.87
2023-02-12T17:40:12.557Z,7.91
2023-02-12T17:42:25.147Z,7.89
2023-02-12T17:44:37.890Z,7.87
2023-02-12T17:46:50.557Z,7.86
2023-02-12T17:49:04.233Z,7.81
2023-02-12T17:51:17.395Z,7.77
2023-02-12T17:53:29.930Z,7.76
2023-02-12T17:55:42.560Z,7.75
2023-02-12T17:57:56.075Z,7.71
2023-02-12T18:00:10.505Z,7.67
2023-02-12T18:02:23.104Z,7.64
2023-02-12T18:04:36.300Z,7.60
2023-02-12T18:06:49.013Z,7.57
2023-02-12T18:09:02.012Z,7.57
2023-02-12T18:11:14.837Z,7.56
2023-02-12T18:13:27.507Z,7.57
2023-02-12T18:15:41.176Z,7.56
2023-02-12T18:17:53.699Z,7.56
2023-02-12T18:20:07.129Z,7.57
2023-02-12T18:22:20.645Z,7.57
2023-02-12T18:24:34.917Z,7.56
2023-02-12T18:26:47.832Z,7.57
2023-02-12T18:29:01.065Z,7.56
2023-02-12T18:31:13.798Z,7.54
2023-02-12T18:33:26.630Z,7.52
2023-02-12T18:35:41.819Z,7.52
2023-02-12T18:37:54.502Z,7.51
2023-02-12T18:40:08.276Z,7.53
2023-02-12T18:42:20.840Z,7.53
2023-02-12T18:44:33.558Z,7.52
2023-02-12T18:46:46.147Z,7.50
2023-02-12T18:48:59.296Z,7.50
2023-02-12T18:51:19.472Z,7.47
2023-02-12T18:53:32.216Z,7.47
2023-02-12T18:55:44.786Z,7.47
2023-02-12T18:57:57.374Z,7.46
2023-02-12T19:00:10.405Z,7.45
2023-02-12T19:02:23.209Z,7.45
2023-02-12T19:04:35.917Z,7.44
2023-02-12T19:06:51.296Z,7.43
2023-02-12T19:09:04.349Z,7.42
2023-02-12T19:11:17.239Z,7.40
2023-02-12T19:13:29.736Z,7.38
2023-02-12T19:15:42.596Z,7.38
2023-02-12T19:17:55.297Z,7.39
2023-02-12T19:20:08.742Z,7.37
2023-02-12T19:22:21.268Z,7.36
2023-02-12T19:24:45.810Z,7.35
2023-02-12T19:26:59.083Z,7.31
2023-02-12T19:29:13.303Z,7.30
2023-02-12T19:31:29.892Z,7.28
2023-02-12T19:33:43.703Z,7.24
2023-02-12T19:35:56.259Z,7.21
2023-02-12T19:38:08.942Z,7.21
2023-02-12T19:40:21.717Z,7.20
2023-02-12T19:42:34.326Z,7.17
2023-02-12T19:44:47.302Z,7.16
2023-02-12T19:46:59.942Z,7.16
2023-02-12T19:49:16.516Z,7.14
2023-02-12T19:51:30.625Z,7.11
2023-02-12T19:53:43.638Z,7.12
2023-02-12T19:55:56.242Z,7.10
2023-02-12T19:58:09.596Z,7.07
2023-02-12T20:00:22.652Z,7.02
2023-02-12T20:02:35.444Z,6.97
2023-02-12T20:04:48.356Z,6.95
2023-02-12T20:07:01.241Z,6.95
2023-02-12T20:09:14.169Z,6.91
2023-02-12T20:11:30.364Z,6.88
2023-02-12T20:13:43.349Z,6.86
2023-02-12T20:15:56.062Z,6.86
2023-02-12T20:18:08.760Z,6.86
2023-02-12T20:20:21.786Z,6.85
2023-02-12T20:22:34.369Z,6.84
2023-02-12T20:24:47.309Z,6.82
2023-02-12T20:27:01.632Z,6.81
2023-02-12T20:29:14.200Z,6.81
2023-02-12T20:31:30.888Z,6.80
2023-02-12T20:33:44.346Z,6.81
2023-02-12T20:35:57.361Z,6.80
2023-02-12T20:38:10.440Z,6.81
2023-02-12T20:40:23.051Z,6.80
2023-02-12T20:42:35.764Z,6.80
2023-02-12T20:44:48.472Z,6.80
2023-02-12T20:47:01.137Z,6.81
2023-02-12T20:49:15.564Z,6.81
2023-02-12T20:51:28.464Z,6.81
2023-02-12T20:53:42.608Z,6.79
2023-02-12T20:55:55.169Z,6.76
2023-02-12T20:58:07.742Z,6.75
2023-02-12T21:00:20.657Z,6.77
2023-02-12T21:02:33.467Z,6.77
2023-02-12T21:04:46.122Z,6.79
2023-02-12T21:06:59.256Z,6.77
2023-02-12T21:09:13.906Z,6.76
2023-02-12T21:11:27.998Z,6.74
2023-02-12T21:13:58.938Z,6.75
2023-02-12T21:16:16.713Z,6.72
2023-02-12T21:18:29.883Z,6.73
2023-02-12T21:20:42.421Z,6.73
2023-02-12T21:22:55.007Z,6.71
2023-02-12T21:25:07.777Z,6.70
2023-02-12T21:27:20.353Z,6.72
2023-02-12T21:29:33.353Z,6.73
2023-02-12T21:31:48.700Z,6.75
2023-02-12T21:34:02.765Z,6.78
2023-02-12T21:36:18.612Z,6.80
2023-02-12T21:38:35.453Z,6.80
2023-02-12T21:40:48.074Z,6.79
2023-02-12T21:43:00.629Z,6.80
2023-02-12T21:45:13.201Z,6.80
2023-02-12T21:47:27.234Z,6.80
2023-02-12T21:49:39.931Z,6.79
2023-02-12T21:51:55.324Z,6.79
2023-02-12T21:54:10.457Z,6.77
2023-02-12T21:56:23.667Z,6.75
2023-02-12T21:58:36.221Z,6.75
2023-02-12T22:00:50.362Z,6.77
2023-02-12T22:03:03.030Z,6.77
2023-02-12T22:05:15.729Z,6.76
2023-02-12T22:07:28.247Z,6.78
2023-02-12T22:09:40.813Z,6.79
2023-02-12T22:11:53.424Z,6.77
2023-02-12T22:14:08.121Z,6.76
2023-02-12T22:16:24.318Z,6.74
2023-02-12T22:18:37.553Z,6.72
2023-02-12T22:20:50.117Z,6.67
2023-02-12T22:23:02.774Z,6.63
2023-02-12T22:25:15.411Z,6.62
2023-02-12T22:27:31.291Z,6.61
2023-02-12T22:29:43.812Z,6.59
2023-02-12T22:31:56.481Z,6.58
2023-02-12T22:34:16.136Z,6.59
2023-02-12T22:36:29.246Z,6.57
2023-02-12T22:38:41.812Z,6.57
2023-02-12T22:40:54.393Z,6.54
2023-02-12T22:43:06.917Z,6.54
2023-02-12T22:45:19.540Z,6.56
2023-02-12T22:47:33.223Z,6.57
2023-02-12T22:49:45.747Z,6.55
2023-02-12T22:51:58.270Z,6.53
2023-02-12T22:54:14.768Z,6.53
2023-02-12T22:56:27.498Z,6.53
2023-02-12T22:58:40.167Z,6.54
2023-02-12T23:00:52.684Z,6.56
2023-02-12T23:03:05.230Z,6.57
2023-02-12T23:05:17.864Z,6.57
2023-02-12T23:07:30.461Z,6.57
2023-02-12T23:09:42.919Z,6.56
2023-02-12T23:11:55.404Z,6.57
2023-02-12T23:14:07.971Z,6.58
2023-02-12T23:16:21.211Z,6.57
2023-02-12T23:18:34.217Z,6.55
2023-02-12T23:20:47.183Z,6.54
2023-02-12T23:22:59.732Z,6.54
2023-02-12T23:25:12.321Z,6.53
2023-02-12T23:27:24.873Z,6.54
2023-02-12T23:29:37.485Z,6.54
2023-02-12T23:31:50.081Z,6.53
2023-02-12T23:34:03.153Z,6.53
2023-02-12T23:36:15.720Z,6.52
2023-02-12T23:38:28.263Z,6.55
2023-02-12T23:40:41.247Z,6.55
2023-02-12T23:42:53.824Z,6.53
2023-02-12T23:45:07.481Z,6.52
2023-02-12T23:47:20.057Z,6.53
2023-02-12T23:49:35.157Z,6.54
2023-02-12T23:51:47.757Z,6.55
2023-02-12T23:54:01.852Z,6.55
2023-02-12T23:56:14.328Z,6.56
2023-02-12T23:58:26.975Z,6.56
